createdAt,value
2019-02-26T00:00:24.398Z,72.10
2019-02-26T00:03:02.164Z,72.40
2019-02-26T00:05:33.178Z,72.30
2019-02-26T00:08:06.055Z,72.20
2019-02-26T00:10:39.169Z,72.40
2019-02-26T00:13:12.060Z,72.70
2019-02-26T00:15:48.315Z,72.70
2019-02-26T00:18:21.488Z,72.70
2019-02-26T00:20:56.668Z,72.70
2019-02-26T00:23:30.056Z,72.60
2019-02-26T00:26:04.175Z,72.20
2019-02-26T00:28:38.948Z,72.40
2019-02-26T00:31:10.275Z,72.60
2019-02-26T00:33:43.394Z,72.60
2019-02-26T00:36:16.375Z,72.50
2019-02-26T00:38:49.436Z,72.40
2019-02-26T00:41:24.446Z,72.40
2019-02-26T00:43:57.730Z,72.60
2019-02-26T00:46:32.435Z,72.60
2019-02-26T00:49:05.874Z,72.60
2019-02-26T00:51:39.865Z,72.50
2019-02-26T00:54:12.797Z,72.60
2019-02-26T00:56:45.175Z,73.00
2019-02-26T00:59:16.475Z,72.80
2019-02-26T01:01:50.319Z,72.80
2019-02-26T01:04:23.978Z,72.90
2019-02-26T01:06:59.002Z,72.90
2019-02-26T01:09:32.259Z,72.50
2019-02-26T01:12:07.347Z,72.70
2019-02-26T01:14:41.379Z,72.50
2019-02-26T01:17:14.838Z,72.60
2019-02-26T01:19:48.555Z,72.30
2019-02-26T01:22:20.802Z,72.60
2019-02-26T01:24:54.271Z,72.80
2019-02-26T01:27:27.396Z,73.20
2019-02-26T01:30:03.220Z,73.60
2019-02-26T01:32:34.815Z,72.80
2019-02-26T01:35:08.891Z,72.90
2019-02-26T01:37:42.475Z,73.10
2019-02-26T01:40:20.563Z,73.20
2019-02-26T01:42:52.378Z,72.90
2019-02-26T01:45:24.985Z,73.10
2019-02-26T01:47:57.357Z,73.60
2019-02-26T01:50:30.896Z,73.80
2019-02-26T01:53:03.715Z,74.00
2019-02-26T01:55:36.437Z,73.60
2019-02-26T01:58:09.795Z,73.70
2019-02-26T02:00:42.116Z,73.90
2019-02-26T02:03:14.455Z,74.10
2019-02-26T02:05:48.053Z,74.20
2019-02-26T02:08:23.007Z,74.30
2019-02-26T02:10:57.142Z,74.30
2019-02-26T02:13:30.655Z,74.10
2019-02-26T02:16:04.903Z,74.10
2019-02-26T02:18:38.595Z,74.30
2019-02-26T02:21:11.416Z,74.10
2019-02-26T02:23:44.192Z,73.60
2019-02-26T02:26:17.635Z,74.30
2019-02-26T02:28:50.258Z,74.00
2019-02-26T02:31:24.431Z,74.10
2019-02-26T02:33:57.157Z,74.20
2019-02-26T02:36:30.457Z,74.10
2019-02-26T02:39:03.577Z,73.80
2019-02-26T02:41:35.974Z,73.70
2019-02-26T02:44:12.343Z,73.80
2019-02-26T02:46:44.375Z,73.60
2019-02-26T02:49:17.962Z,73.00
2019-02-26T02:51:50.197Z,73.20
2019-02-26T02:54:24.061Z,73.40
2019-02-26T02:56:59.956Z,73.60
2019-02-26T02:59:33.968Z,74.10
2019-02-26T03:02:05.115Z,74.40
2019-02-26T03:04:37.816Z,73.00
2019-02-26T03:07:11.138Z,73.30
2019-02-26T03:09:45.790Z,73.10
2019-02-26T03:12:19.376Z,73.40
2019-02-26T03:14:51.716Z,73.80
2019-02-26T03:17:23.654Z,74.10
2019-02-26T03:19:58.443Z,74.10
2019-02-26T03:22:30.576Z,74.40
2019-02-26T03:25:03.516Z,74.40
2019-02-26T03:27:37.425Z,74.10
2019-02-26T03:30:20.709Z,73.90
2019-02-26T03:32:50.528Z,74.30
2019-02-26T03:35:23.401Z,74.60
2019-02-26T03:37:55.619Z,74.90
2019-02-26T03:40:29.962Z,74.70
2019-02-26T03:43:01.999Z,74.40
2019-02-26T03:45:35.175Z,74.60
2019-02-26T03:48:07.815Z,74.90
2019-02-26T03:50:44.064Z,75.20
2019-02-26T03:53:14.657Z,75.20
2019-02-26T03:55:47.254Z,75.60
2019-02-26T03:58:19.055Z,75.60
2019-02-26T04:00:52.135Z,75.60
2019-02-26T04:03:24.456Z,75.80
2019-02-26T04:05:57.893Z,75.60
2019-02-26T04:08:31.036Z,75.50
2019-02-26T04:11:02.676Z,75.60
2019-02-26T04:13:35.055Z,75.90
2019-02-26T04:16:07.796Z,76.20
2019-02-26T04:18:40.935Z,76.30
2019-02-26T04:21:15.747Z,76.10
2019-02-26T04:23:48.656Z,75.90
2019-02-26T04:26:29.035Z,76.00
2019-02-26T04:29:26.317Z,75.80
2019-02-26T04:32:37.797Z,75.80
2019-02-26T04:35:18.694Z,75.80
2019-02-26T04:38:14.700Z,75.30
2019-02-26T04:41:00.524Z,75.60
2019-02-26T04:44:11.555Z,75.40
2019-02-26T04:47:12.435Z,75.10
2019-02-26T04:49:44.935Z,75.10
2019-02-26T04:52:17.763Z,75.30
2019-02-26T04:54:49.894Z,75.10
2019-02-26T04:57:22.275Z,75.10
2019-02-26T04:59:55.660Z,75.00
2019-02-26T05:02:29.476Z,75.10
2019-02-26T05:05:03.275Z,75.10
2019-02-26T05:07:38.440Z,74.90
2019-02-26T05:10:11.236Z,75.10
2019-02-26T05:12:42.707Z,75.20
2019-02-26T05:15:19.817Z,75.20
2019-02-26T05:17:49.486Z,75.00
2019-02-26T05:20:22.088Z,74.70
2019-02-26T05:23:00.038Z,74.60
2019-02-26T05:25:34.265Z,74.60
2019-02-26T05:28:06.562Z,74.70
2019-02-26T05:30:40.403Z,75.00
2019-02-26T05:33:14.117Z,75.50
2019-02-26T05:35:48.876Z,75.80
2019-02-26T05:38:21.309Z,75.80
2019-02-26T05:40:55.839Z,75.50
2019-02-26T05:43:30.664Z,75.40
2019-02-26T05:46:03.980Z,75.70
2019-02-26T05:48:37.226Z,75.70
2019-02-26T05:51:11.428Z,75.80
2019-02-26T05:53:44.110Z,75.90
2019-02-26T05:56:20.169Z,75.80
2019-02-26T05:58:51.148Z,76.00
2019-02-26T06:01:25.104Z,76.40
2019-02-26T06:03:58.690Z,76.40
2019-02-26T06:06:31.668Z,75.80
2019-02-26T06:09:07.469Z,75.80
2019-02-26T06:11:41.819Z,76.30
2019-02-26T06:14:13.308Z,76.20
2019-02-26T06:16:48.179Z,76.20
2019-02-26T06:19:20.928Z,76.40
2019-02-26T06:21:54.826Z,76.20
2019-02-26T06:24:29.801Z,76.60
2019-02-26T06:27:02.427Z,76.60
2019-02-26T06:29:37.383Z,76.40
2019-02-26T06:32:17.448Z,76.50
2019-02-26T06:34:50.508Z,76.20
2019-02-26T06:37:23.905Z,76.30
2019-02-26T06:39:57.904Z,77.00
2019-02-26T06:42:31.571Z,76.50
2019-02-26T06:45:05.887Z,76.00
2019-02-26T06:47:37.248Z,76.00
2019-02-26T06:50:11.093Z,76.20
2019-02-26T06:52:46.893Z,76.30
2019-02-26T06:55:18.707Z,76.50
2019-02-26T06:57:52.813Z,76.40
2019-02-26T07:00:27.523Z,76.30
2019-02-26T07:03:02.743Z,76.30
2019-02-26T07:05:35.989Z,76.40
2019-02-26T07:08:08.113Z,76.50
2019-02-26T07:10:40.928Z,76.80
2019-02-26T07:13:14.449Z,76.90
2019-02-26T07:15:47.390Z,76.50
2019-02-26T07:18:19.717Z,76.50
2019-02-26T07:20:54.653Z,76.80
2019-02-26T07:23:29.219Z,76.50
2019-02-26T07:26:00.508Z,76.60
2019-02-26T07:28:33.588Z,76.80
2019-02-26T07:31:08.103Z,76.00
2019-02-26T07:33:41.168Z,76.50
2019-02-26T07:36:16.063Z,76.60
2019-02-26T07:38:51.356Z,76.60
2019-02-26T07:41:23.161Z,76.30
2019-02-26T07:43:56.907Z,76.40
2019-02-26T07:46:30.588Z,76.50
2019-02-26T07:49:04.876Z,76.10
2019-02-26T07:51:38.564Z,76.30
2019-02-26T07:54:12.128Z,75.80
2019-02-26T07:56:45.368Z,75.80
2019-02-26T07:59:16.771Z,75.80
2019-02-26T08:01:49.755Z,75.70
2019-02-26T08:04:22.329Z,75.50
2019-02-26T08:06:56.848Z,75.40
2019-02-26T08:09:28.628Z,75.80
2019-02-26T08:12:02.071Z,74.30
2019-02-26T08:14:34.128Z,74.00
2019-02-26T08:17:06.326Z,74.20
2019-02-26T08:19:39.847Z,74.00
2019-02-26T08:22:13.564Z,74.40
2019-02-26T08:24:48.612Z,73.50
2019-02-26T08:27:20.989Z,73.30
2019-02-26T08:29:54.708Z,72.70
2019-02-26T08:32:28.626Z,71.80
2019-02-26T08:35:00.823Z,71.90
2019-02-26T08:37:33.708Z,71.10
2019-02-26T08:40:06.968Z,71.00
2019-02-26T08:42:39.008Z,70.60
2019-02-26T08:45:15.072Z,70.30
2019-02-26T08:47:48.787Z,70.60
2019-02-26T08:50:20.892Z,70.10
2019-02-26T08:52:55.402Z,70.00
2019-02-26T08:55:26.219Z,69.80
2019-02-26T08:57:58.955Z,69.40
2019-02-26T09:00:34.206Z,69.40
2019-02-26T09:03:08.280Z,70.30
2019-02-26T09:05:40.413Z,70.00
2019-02-26T09:08:14.007Z,70.00
2019-02-26T09:10:48.639Z,69.90
2019-02-26T09:13:21.002Z,69.50
2019-02-26T09:15:55.554Z,69.80
2019-02-26T09:18:28.198Z,69.80
2019-02-26T09:21:02.602Z,70.10
2019-02-26T09:23:35.123Z,70.20
2019-02-26T09:26:07.685Z,70.70
2019-02-26T09:28:39.843Z,71.90
2019-02-26T09:31:14.201Z,71.20
2019-02-26T09:33:47.202Z,71.30
2019-02-26T09:36:23.161Z,70.90
2019-02-26T09:38:54.682Z,70.40
2019-02-26T09:41:27.342Z,69.90
2019-02-26T09:43:59.331Z,70.10
2019-02-26T09:46:35.881Z,70.50
2019-02-26T09:49:11.860Z,70.30
2019-02-26T09:51:41.968Z,70.40
2019-02-26T09:54:15.283Z,71.00
2019-02-26T09:56:47.973Z,70.80
2019-02-26T09:59:21.216Z,70.70
2019-02-26T10:01:56.424Z,70.40
2019-02-26T10:04:28.990Z,70.70
2019-02-26T10:07:02.279Z,70.50
2019-02-26T10:09:35.256Z,69.80
2019-02-26T10:12:12.285Z,69.10
2019-02-26T10:14:44.352Z,69.10
2019-02-26T10:17:17.398Z,68.10
2019-02-26T10:19:49.754Z,68.10
2019-02-26T10:22:22.611Z,67.40
2019-02-26T10:24:55.312Z,67.60
2019-02-26T10:27:31.042Z,68.00
2019-02-26T10:30:02.790Z,67.60
2019-02-26T10:32:36.162Z,67.60
2019-02-26T10:35:14.041Z,67.30
2019-02-26T10:37:49.302Z,67.00
2019-02-26T10:40:22.262Z,67.50
2019-02-26T10:42:55.283Z,65.90
2019-02-26T10:45:29.044Z,66.30
2019-02-26T10:48:02.447Z,64.50
2019-02-26T10:50:37.256Z,63.90
2019-02-26T10:53:13.563Z,62.80
2019-02-26T10:55:44.956Z,63.30
2019-02-26T10:58:18.033Z,64.30
2019-02-26T11:00:55.705Z,63.60
2019-02-26T11:03:29.869Z,62.90
2019-02-26T11:06:04.615Z,62.10
2019-02-26T11:08:36.670Z,62.10
2019-02-26T11:11:13.012Z,61.60
2019-02-26T11:13:48.208Z,60.80
2019-02-26T11:16:24.831Z,60.20
2019-02-26T11:18:51.303Z,59.60
2019-02-26T11:21:24.381Z,60.60
2019-02-26T11:23:58.499Z,60.70
2019-02-26T11:26:32.459Z,60.90
2019-02-26T11:29:05.426Z,62.00
2019-02-26T11:31:39.752Z,60.40
2019-02-26T11:34:13.457Z,60.10
2019-02-26T11:36:46.796Z,59.90
2019-02-26T11:39:19.842Z,58.20
2019-02-26T11:41:53.765Z,57.60
2019-02-26T11:44:27.708Z,55.70
2019-02-26T11:47:01.145Z,56.00
2019-02-26T11:49:36.951Z,54.50
2019-02-26T11:52:12.954Z,54.00
2019-02-26T11:54:46.035Z,53.80
2019-02-26T11:57:18.362Z,52.50
2019-02-26T11:59:50.942Z,52.60
2019-02-26T12:02:27.166Z,52.30
2019-02-26T12:04:57.549Z,52.80
2019-02-26T12:07:32.255Z,53.10
2019-02-26T12:10:09.511Z,52.30
2019-02-26T12:12:39.934Z,51.60
2019-02-26T12:15:15.266Z,51.80
2019-02-26T12:17:51.885Z,51.00
2019-02-26T12:20:24.973Z,49.80
2019-02-26T12:22:57.694Z,49.00
2019-02-26T12:25:30.055Z,48.80
2019-02-26T12:28:03.695Z,47.90
2019-02-26T12:30:39.807Z,47.90
2019-02-26T12:33:14.770Z,48.60
2019-02-26T12:35:47.553Z,47.40
2019-02-26T12:38:21.528Z,47.50
2019-02-26T12:40:54.434Z,47.70
2019-02-26T12:43:27.775Z,47.30
2019-02-26T12:46:01.487Z,47.30
2019-02-26T12:48:35.175Z,46.70
2019-02-26T12:51:08.785Z,45.80
2019-02-26T12:53:49.606Z,46.50
2019-02-26T12:56:20.707Z,46.80
2019-02-26T12:58:54.578Z,47.50
2019-02-26T13:01:26.226Z,47.10
2019-02-26T13:03:58.486Z,46.50
2019-02-26T13:06:29.343Z,46.60
2019-02-26T13:09:01.422Z,47.50
2019-02-26T13:11:34.349Z,48.70
2019-02-26T13:14:07.681Z,49.00
2019-02-26T13:16:42.029Z,49.80
2019-02-26T13:19:18.343Z,50.10
2019-02-26T13:21:48.475Z,49.80
2019-02-26T13:24:22.417Z,50.10
2019-02-26T13:26:55.665Z,49.50
2019-02-26T13:29:28.292Z,50.20
2019-02-26T13:32:01.157Z,50.10
2019-02-26T13:34:34.535Z,50.70
2019-02-26T13:37:06.235Z,50.10
2019-02-26T13:39:41.535Z,50.40
2019-02-26T13:42:14.227Z,50.10
2019-02-26T13:44:47.340Z,50.10
2019-02-26T13:47:19.280Z,50.00
2019-02-26T13:49:52.097Z,50.20
2019-02-26T13:52:25.305Z,50.20
2019-02-26T13:54:57.880Z,50.20
2019-02-26T13:57:30.347Z,50.40
2019-02-26T14:00:02.952Z,50.40
2019-02-26T14:02:36.693Z,50.80
2019-02-26T14:05:10.267Z,51.20
2019-02-26T14:07:42.308Z,51.70
2019-02-26T14:10:16.167Z,51.10
2019-02-26T14:12:49.007Z,51.90
2019-02-26T14:15:23.688Z,51.90
2019-02-26T14:17:57.388Z,51.20
2019-02-26T14:20:29.827Z,52.00
2019-02-26T14:23:01.751Z,52.10
2019-02-26T14:25:32.447Z,52.20
2019-02-26T14:28:04.968Z,52.20
2019-02-26T14:30:37.407Z,52.50
2019-02-26T14:33:09.408Z,52.70
2019-02-26T14:35:41.827Z,52.90
2019-02-26T14:38:14.747Z,52.80
2019-02-26T14:40:48.108Z,52.70
2019-02-26T14:43:19.927Z,52.50
2019-02-26T14:45:52.547Z,52.40
2019-02-26T14:48:24.987Z,52.30
2019-02-26T14:50:57.567Z,52.30
2019-02-26T14:53:30.478Z,52.30
2019-02-26T14:56:02.599Z,52.40
2019-02-26T14:58:35.592Z,52.60
2019-02-26T15:01:09.379Z,53.00
2019-02-26T15:03:41.598Z,53.10
2019-02-26T15:06:14.137Z,53.30
2019-02-26T15:08:46.692Z,53.30
2019-02-26T15:11:18.971Z,53.20
2019-02-26T15:13:51.391Z,53.00
2019-02-26T15:16:23.452Z,53.30
2019-02-26T15:18:55.730Z,53.90
2019-02-26T15:21:27.784Z,53.50
2019-02-26T15:24:00.205Z,53.50
2019-02-26T15:26:32.646Z,53.50
2019-02-26T15:29:04.314Z,53.50
2019-02-26T15:31:37.095Z,53.40
2019-02-26T15:34:08.959Z,53.50
2019-02-26T15:36:41.195Z,53.50
2019-02-26T15:39:14.039Z,52.60
2019-02-26T15:41:48.205Z,50.50
2019-02-26T15:44:21.099Z,50.50
2019-02-26T15:46:53.621Z,50.90
2019-02-26T15:49:26.159Z,51.00
2019-02-26T15:51:58.837Z,50.40
2019-02-26T15:54:31.628Z,50.50
2019-02-26T15:57:04.121Z,51.20
2019-02-26T15:59:36.641Z,52.20
2019-02-26T16:02:09.580Z,53.00
2019-02-26T16:04:41.882Z,54.20
2019-02-26T16:07:14.859Z,54.70
2019-02-26T16:09:47.321Z,55.00
2019-02-26T16:12:20.363Z,55.60
2019-02-26T16:14:53.701Z,55.30
2019-02-26T16:17:26.586Z,55.50
2019-02-26T16:19:58.623Z,55.70
2019-02-26T16:22:31.684Z,55.90
2019-02-26T16:25:07.551Z,56.20
2019-02-26T16:27:38.583Z,56.80
2019-02-26T16:30:21.085Z,57.30
2019-02-26T16:32:53.205Z,57.60
2019-02-26T16:35:26.505Z,57.90
2019-02-26T16:38:00.284Z,58.20
2019-02-26T16:40:32.644Z,58.10
2019-02-26T16:43:05.851Z,57.80
2019-02-26T16:45:39.063Z,57.90
2019-02-26T16:48:11.763Z,58.00
2019-02-26T16:50:45.579Z,58.30
2019-02-26T16:53:18.764Z,58.60
2019-02-26T16:55:51.966Z,58.70
2019-02-26T16:58:25.244Z,58.60
2019-02-26T17:00:58.066Z,58.80
2019-02-26T17:03:31.671Z,59.10
2019-02-26T17:06:05.263Z,59.00
2019-02-26T17:08:37.747Z,59.00
2019-02-26T17:11:13.347Z,59.00
2019-02-26T17:13:44.923Z,59.00
2019-02-26T17:16:17.924Z,59.40
2019-02-26T17:18:50.943Z,59.70
2019-02-26T17:21:23.178Z,59.90
2019-02-26T17:23:55.326Z,60.10
2019-02-26T17:26:27.219Z,60.20
2019-02-26T17:28:59.450Z,60.40
2019-02-26T17:31:31.484Z,60.70
2019-02-26T17:34:03.888Z,60.60
2019-02-26T17:36:39.085Z,60.80
2019-02-26T17:39:12.344Z,60.80
2019-02-26T17:41:46.044Z,61.10
2019-02-26T17:44:19.063Z,61.10
2019-02-26T17:46:49.764Z,61.30
2019-02-26T17:49:22.425Z,61.30
2019-02-26T17:51:55.503Z,61.30
2019-02-26T17:54:27.343Z,61.50
2019-02-26T17:57:00.975Z,61.50
2019-02-26T17:59:34.104Z,61.50
2019-02-26T18:02:06.544Z,61.60
2019-02-26T18:04:39.085Z,61.80
2019-02-26T18:07:11.724Z,61.80
2019-02-26T18:09:44.825Z,62.00
2019-02-26T18:12:18.664Z,62.10
2019-02-26T18:14:52.446Z,62.10
2019-02-26T18:17:25.819Z,62.10
2019-02-26T18:19:58.043Z,62.20
2019-02-26T18:22:30.802Z,62.40
2019-02-26T18:25:03.583Z,62.80
2019-02-26T18:27:36.652Z,62.80
2019-02-26T18:30:10.244Z,62.40
2019-02-26T18:32:49.998Z,62.60
2019-02-26T18:35:16.965Z,62.70
2019-02-26T18:37:50.065Z,63.00
2019-02-26T18:40:22.684Z,63.30
2019-02-26T18:42:55.663Z,63.30
2019-02-26T18:45:29.586Z,63.60
2019-02-26T18:48:02.667Z,63.50
2019-02-26T18:50:34.864Z,63.30
2019-02-26T18:53:07.223Z,64.20
2019-02-26T18:55:40.183Z,63.90
2019-02-26T18:58:13.785Z,63.30
2019-02-26T19:00:47.085Z,63.60
2019-02-26T19:03:19.664Z,63.20
2019-02-26T19:05:54.653Z,63.00
2019-02-26T19:08:25.864Z,63.60
2019-02-26T19:10:57.824Z,63.70
2019-02-26T19:13:30.884Z,64.20
2019-02-26T19:16:03.165Z,64.20
2019-02-26T19:18:38.478Z,64.10
2019-02-26T19:21:12.083Z,64.00
2019-02-26T19:23:45.043Z,64.20
2019-02-26T19:26:17.780Z,64.40
2019-02-26T19:28:49.944Z,64.30
2019-02-26T19:31:23.577Z,64.50
2019-02-26T19:33:56.003Z,64.40
2019-02-26T19:36:29.543Z,64.20
2019-02-26T19:39:01.965Z,64.20
2019-02-26T19:41:34.808Z,64.20
2019-02-26T19:44:07.744Z,64.30
2019-02-26T19:46:41.244Z,64.60
2019-02-26T19:49:13.963Z,64.70
2019-02-26T19:51:46.524Z,64.80
2019-02-26T19:54:20.141Z,64.90
2019-02-26T19:56:56.700Z,65.00
2019-02-26T19:59:27.205Z,65.00
2019-02-26T20:02:00.302Z,65.00
2019-02-26T20:04:33.282Z,64.80
2019-02-26T20:07:05.323Z,65.00
2019-02-26T20:09:38.864Z,65.10
2019-02-26T20:12:12.207Z,65.10
2019-02-26T20:14:48.602Z,65.00
2019-02-26T20:17:18.882Z,64.90
2019-02-26T20:19:52.062Z,65.00
2019-02-26T20:22:25.402Z,64.80
2019-02-26T20:24:58.162Z,64.70
2019-02-26T20:27:33.035Z,64.30
2019-02-26T20:30:05.742Z,64.40
2019-02-26T20:32:38.346Z,64.70
2019-02-26T20:35:13.262Z,64.70
2019-02-26T20:37:46.322Z,64.80
2019-02-26T20:40:21.103Z,64.70
2019-02-26T20:42:54.063Z,64.50
2019-02-26T20:45:27.482Z,64.50
2019-02-26T20:48:03.908Z,64.10
2019-02-26T20:50:35.982Z,63.80
2019-02-26T20:53:09.104Z,64.10
2019-02-26T20:55:42.262Z,64.10
2019-02-26T20:58:15.862Z,64.00
2019-02-26T21:00:49.483Z,63.90
2019-02-26T21:03:21.963Z,64.20
2019-02-26T21:05:54.863Z,64.20
2019-02-26T21:08:30.758Z,64.10
2019-02-26T21:11:01.893Z,64.10
2019-02-26T21:13:35.503Z,64.20
2019-02-26T21:16:09.003Z,64.40
2019-02-26T21:18:42.857Z,64.60
2019-02-26T21:21:15.957Z,64.50
2019-02-26T21:23:48.256Z,64.80
2019-02-26T21:26:21.198Z,65.00
2019-02-26T21:28:54.078Z,65.10
2019-02-26T21:31:27.736Z,65.20
2019-02-26T21:34:03.651Z,65.40
2019-02-26T21:36:34.557Z,65.50
2019-02-26T21:39:10.846Z,65.80
2019-02-26T21:41:42.695Z,65.60
2019-02-26T21:44:15.297Z,65.60
2019-02-26T21:46:48.637Z,65.60
2019-02-26T21:49:21.802Z,65.60
2019-02-26T21:51:55.203Z,65.90
2019-02-26T21:54:28.057Z,65.90
2019-02-26T21:57:00.676Z,66.00
2019-02-26T21:59:34.099Z,66.40
2019-02-26T22:02:07.435Z,66.40
2019-02-26T22:04:40.497Z,66.40
2019-02-26T22:07:12.358Z,66.40
2019-02-26T22:09:46.400Z,66.50
2019-02-26T22:12:21.845Z,66.70
2019-02-26T22:14:54.137Z,66.70
2019-02-26T22:17:26.657Z,66.60
2019-02-26T22:19:59.317Z,66.30
2019-02-26T22:22:31.333Z,66.00
2019-02-26T22:25:09.602Z,66.20
2019-02-26T22:27:39.217Z,66.30
2019-02-26T22:30:14.101Z,66.40
2019-02-26T22:32:47.837Z,66.50
2019-02-26T22:35:20.458Z,66.40
2019-02-26T22:37:53.275Z,66.30
2019-02-26T22:40:28.906Z,66.30
2019-02-26T22:42:59.676Z,66.40
2019-02-26T22:45:32.796Z,66.50
2019-02-26T22:48:05.621Z,66.80
2019-02-26T22:50:38.874Z,66.40
2019-02-26T22:53:12.274Z,66.70
2019-02-26T22:55:44.517Z,66.80
2019-02-26T22:58:17.256Z,66.50
2019-02-26T23:01:19.975Z,66.60
2019-02-26T23:03:52.635Z,66.70
2019-02-26T23:06:25.234Z,66.90
2019-02-26T23:08:58.436Z,66.80
2019-02-26T23:11:32.489Z,67.00
2019-02-26T23:14:06.977Z,67.30
2019-02-26T23:16:40.015Z,67.20
2019-02-26T23:19:13.578Z,67.00
2019-02-26T23:21:49.795Z,66.80
2019-02-26T23:24:20.935Z,67.30
2019-02-26T23:26:54.376Z,67.50
2019-02-26T23:29:27.969Z,67.50
2019-02-26T23:32:03.753Z,67.50
2019-02-26T23:34:35.497Z,67.70
2019-02-26T23:37:08.136Z,67.50
2019-02-26T23:39:40.955Z,67.60
2019-02-26T23:42:13.675Z,67.60
2019-02-26T23:44:50.882Z,67.40
2019-02-26T23:47:22.330Z,67.20
2019-02-26T23:49:56.098Z,66.90
2019-02-26T23:52:28.400Z,67.10
2019-02-26T23:55:02.517Z,67.20
2019-02-26T23:57:35.017Z,66.90
